Nearby METAR Reports

 

KSJC - San Jose, California, USA
Distance from station: NE 9mi, 14km
Updated: Thu, 23-Sep-2021 11:53pm CDT
Partly cloudy
Partly cloudy
 Wind from calm
Wind: Calm
Temperature: 72°F , 22°C
Dew Point: 52°F , 11°C
Humidity: 50%
Barometer: 29.89 inHg , 1012.2 hPa
Clouds: Partly cloudy
Visibility: 10 miles , 16 km
Cloud details: Few Clouds 3000 ft
Partly cloudy 9000 ft
2021/09/24 04:53 KSJC 240453Z 00000KT 10SM FEW030 SCT090 22/11 A2989 RMK AO2 SLP120 T02170111
KNUQ - Moffett Nas/Mtn, California, USA
Distance from station: N 9mi, 14km
Updated: Sun, 22-Aug-2021 6:40am CDT
NOT Current
Overcast
Overcast
 Wind from SSE
Wind: SSE 7 mph , 11 km/h
Temperature: 61°F , 16°C
Dew Point: 54°F , 12°C
Humidity: 77%
Barometer: 29.82 inHg , 1009.8 hPa
Clouds: Overcast
Visibility: 10 miles , 16 km
Cloud details: Overcast 1800 ft
2021/08/22 11:40 KNUQ 221140Z AUTO 16006KT 10SM OVC018 16/12 A2982 RMK AO2
 
KPAO - Palo Alto, California, USA
Distance from station: NNW 14mi, 23km
Updated: Thu, 23-Sep-2021 10:47pm CDT
NOT Current
Clear
Clear
 Wind from calm
Wind: Calm
Temperature: 66°F , 19°C
Dew Point: 54°F , 12°C
Humidity: 64%
Barometer: 29.88 inHg , 1011.9 hPa
Clouds: Clear
Visibility: 10 miles , 16 km
2021/09/24 03:47 KPAO 240347Z 00000KT 10SM SKC 19/12 A2988 RMK LAST
KRHV - San Jose/Reid, California, USA
Distance from station: ENE 12mi, 19km
Updated: Fri, 24-Sep-2021 12:00am CDT
Clear
Clear
 Wind from calm
Wind: Calm
Temperature: 72°F , 22°C
Dew Point: 55°F , 13°C
Humidity: 57%
Barometer: 29.90 inHg , 1012.5 hPa
Clouds: Clear
Visibility: 10 miles , 16 km
2021/09/24 05:00 KRHV 240500Z 00000KT 10SM SKC 22/13 A2990 RMK LAST
 
KOAK - Oakland, California, USA
Distance from station: NNW 31mi, 50km
Updated: Thu, 23-Sep-2021 11:53pm CDT
Few Clouds
Few Clouds
 Wind from calm
Wind: Calm
Temperature: 64°F , 18°C
Dew Point: 57°F , 14°C
Humidity: 78%
Barometer: 29.89 inHg , 1012.2 hPa
Clouds: Few Clouds
Visibility: 10 miles , 16 km
Cloud details: Few Clouds 20000 ft
2021/09/24 04:53 KOAK 240453Z 00000KT 10SM FEW200 18/14 A2989 RMK AO2 SLP120 T01830139
KSQL - San Carlos Airpo, California, USA
Distance from station: NW 21mi, 34km
Updated: Fri, 24-Sep-2021 12:15am CDT
Clear
Clear
 Wind from calm
Wind: Calm
Temperature: 64°F , 18°C
Dew Point: 59°F , 15°C
Humidity: 83%
Barometer: 29.89 inHg , 1012.2 hPa
Clouds: Clear
Visibility: 10 miles , 16 km
2021/09/24 05:15 KSQL 240515Z AUTO 00000KT 10SM CLR 18/15 A2989 RMK AO2
 
KSFO - San Francisco, California, USA
Distance from station: NW 30mi, 49km
Updated: Thu, 23-Sep-2021 11:56pm CDT
Few Clouds
Few Clouds
 Wind from W
Wind: W 8 mph , 13 km/h
Temperature: 61°F , 16°C
Dew Point: 54°F , 12°C
Humidity: 77%
Barometer: 29.88 inHg , 1011.9 hPa
Clouds: Few Clouds
Visibility: 10 miles , 16 km
Cloud details: Few Clouds 400 ft
Few Clouds 20000 ft
2021/09/24 04:56 KSFO 240456Z 28007KT 10SM FEW004 FEW200 16/12 A2988 RMK AO2 SLP118 T01610117
KE16 - San Martin, California, USA
Distance from station: ESE 27mi, 43km
Updated: Thu, 23-Sep-2021 11:55pm CDT
Clear
Clear
 Wind from calm
Wind: Calm
Temperature: 63°F , 17°C
Dew Point: 54°F , 12°C
Humidity: 73%
Barometer: 29.92 inHg , 1013.2 hPa
Clouds: Clear
Visibility: 10 miles , 16 km
2021/09/24 04:55 KE16 240455Z AUTO 00000KT 10SM CLR 17/12 A2992 RMK AO2 PWINO PNO
 
KWVI - Watsonville, California, USA
Distance from station: SSE 27mi, 44km
Updated: Thu, 23-Sep-2021 11:53pm CDT
Mist, Overcast
Mist, Overcast
 Wind from calm
Wind: Calm
Temperature: 57°F , 14°C
Dew Point: 55°F , 13°C
Humidity: 94%
Barometer: 29.91 inHg , 1012.9 hPa
Summary: Mist
Clouds: Overcast
Visibility: 5 miles , 8 km
Cloud details: Overcast 400 ft
2021/09/24 04:53 KWVI 240453Z AUTO 00000KT 5SM BR OVC004 14/13 A2991 RMK AO2 SLP128 T01440133
KHAF - Half Moon Bay, California, USA
Distance from station: WNW 31mi, 50km
Updated: Fri, 24-Sep-2021 12:15am CDT
Fog, Overcast
Fog, Overcast
 Wind from calm
Wind: Calm
Temperature: 55°F , 13°C
Dew Point: 55°F , 13°C
Humidity: 100%
Barometer: 29.90 inHg , 1012.5 hPa
Summary: Fog
Clouds: Overcast
Visibility: less than 1/4 mile , 0.4 km
Cloud details: Overcast 200 ft
2021/09/24 05:15 KHAF 240515Z AUTO 00000KT M1/4SM FG OVC002 13/13 A2990 RMK AO2 PWINO
 
KHWD - Hayward, California, USA
Distance from station: N 28mi, 44km
Updated: Thu, 23-Sep-2021 11:54pm CDT
Clear
Clear
 Wind from calm
Wind: Calm
Temperature: 66°F , 19°C
Dew Point: 61°F , 16°C
Humidity: 83%
Barometer: 29.88 inHg , 1011.9 hPa
Clouds: Clear
Visibility: 10 miles , 16 km
2021/09/24 04:54 KHWD 240454Z 00000KT 10SM CLR 19/16 A2988 RMK AO2 SLP128 T01890156
KLVK - Livermore, California, USA
Distance from station: NNE 31mi, 51km
Updated: Thu, 23-Sep-2021 11:53pm CDT
Clear
Clear
 Wind from calm
Wind: Calm
Temperature: 73°F , 23°C
Dew Point: 52°F , 11°C
Humidity: 47%
Barometer: 29.87 inHg , 1011.5 hPa
Clouds: Clear
Visibility: 10 miles , 16 km
2021/09/24 04:53 KLVK 240453Z 00000KT 10SM CLR 23/11 A2987 RMK AO2 SLP111 T02280106